Time;durP1;ratioP1;P1;durP2;ratioP2;P2;SDS_P1;SDS_P2;PMS_P1;PMS_P2;Temp;Humidity;BMP_temperature;BMP_pressure;BME280_temperature;BME280_humidity;BME280_pressure;Samples;Min_cycle;Max_cycle;Signal;HPM_P1;HPM_P2
2021/09/01 00:02:10;;;;;;;0.30;0.30;;;22.60;99.90;;;;;;20677471;28;20264;-71
2021/09/01 00:12:13;;;;;;;0.60;0.43;;;22.50;99.90;;;;;;20635234;28;20204;-70
2021/09/01 00:22:19;;;;;;;1.60;0.60;;;22.20;99.90;;;;;;20630120;28;20235;-71
2021/09/01 00:32:23;;;;;;;0.63;0.47;;;22.00;99.90;;;;;;20629053;28;20196;-70
2021/09/01 00:42:28;;;;;;;1.80;0.50;;;21.90;99.90;;;;;;20628033;28;20693;-70
2021/09/01 00:52:32;;;;;;;0.40;0.30;;;21.80;99.90;;;;;;20626002;28;20286;-69
2021/09/01 01:02:39;;;;;;;1.30;0.60;;;21.70;99.90;;;;;;20623624;28;20250;-69
2021/09/01 01:12:42;;;;;;;1.03;0.63;;;21.60;99.90;;;;;;20623515;28;20195;-70
2021/09/01 01:22:47;;;;;;;0.67;0.53;;;21.50;99.90;;;;;;20624064;28;20242;-71
2021/09/01 01:32:55;;;;;;;3.07;1.00;;;21.60;99.90;;;;;;20621456;28;20561;-70
2021/09/01 01:42:59;;;;;;;0.40;0.40;;;21.50;99.90;;;;;;20622361;28;20569;-70
2021/09/01 01:53:05;;;;;;;3.47;0.63;;;21.60;99.90;;;;;;20620286;28;20188;-70
2021/09/01 02:03:08;;;;;;;0.30;0.23;;;21.70;99.90;;;;;;20623321;28;20255;-70
2021/09/01 02:13:13;;;;;;;1.03;0.57;;;21.80;99.90;;;;;;20618819;28;20235;-69
2021/09/01 02:23:17;;;;;;;2.30;1.03;;;21.80;99.90;;;;;;20619072;28;20430;-69
2021/09/01 02:33:22;;;;;;;1.20;0.30;;;21.80;99.90;;;;;;20617622;28;20296;-70
2021/09/01 02:43:26;;;;;;;1.90;1.23;;;21.80;99.90;;;;;;20618692;28;20223;-69
2021/09/01 02:53:31;;;;;;;0.60;0.27;;;21.80;99.90;;;;;;20616864;28;20200;-69
2021/09/01 03:03:34;;;;;;;0.63;0.50;;;21.70;99.90;;;;;;20618033;28;20231;-70
2021/09/01 03:13:39;;;;;;;1.70;0.73;;;21.60;99.90;;;;;;20615596;28;20199;-69
2021/09/01 03:23:43;;;;;;;1.47;0.87;;;21.50;99.90;;;;;;20615557;28;20238;-70
2021/09/01 03:33:48;;;;;;;0.77;0.77;;;21.40;99.90;;;;;;20614477;28;20278;-70
2021/09/01 03:43:51;;;;;;;0.73;0.53;;;21.30;99.90;;;;;;20613383;28;20227;-69
2021/09/01 03:53:56;;;;;;;0.90;0.90;;;21.30;99.90;;;;;;20613997;28;20222;-70
2021/09/01 04:04:01;;;;;;;1.17;0.60;;;21.50;99.90;;;;;;20611265;28;20231;-69
2021/09/01 04:14:06;;;;;;;0.77;0.37;;;21.70;99.90;;;;;;20613633;28;20188;-70
2021/09/01 04:24:10;;;;;;;0.67;0.50;;;21.90;99.90;;;;;;20612488;28;20660;-71
2021/09/01 04:34:15;;;;;;;1.70;0.87;;;21.90;99.90;;;;;;20619363;28;20198;-68
2021/09/01 04:44:19;;;;;;;2.40;0.90;;;21.80;99.90;;;;;;20622369;28;20227;-69
2021/09/01 04:54:25;;;;;;;0.57;0.53;;;21.90;99.90;;;;;;20625182;28;20203;-69
2021/09/01 05:04:29;;;;;;;0.40;0.40;;;21.70;99.90;;;;;;20621794;28;20238;-71
2021/09/01 05:14:34;;;;;;;0.40;0.40;;;21.40;99.90;;;;;;20623802;28;20202;-71
2021/09/01 05:24:43;;;;;;;0.87;0.70;;;21.10;99.90;;;;;;20620481;28;20223;-69
2021/09/01 05:34:49;;;;;;;0.40;0.30;;;21.10;99.90;;;;;;20620686;28;20218;-69
2021/09/01 05:44:55;;;;;;;0.77;0.73;;;21.20;99.90;;;;;;20621714;28;20548;-69
2021/09/01 05:55:04;;;;;;;0.70;0.50;;;21.10;99.90;;;;;;20620505;28;20254;-69
2021/09/01 06:05:11;;;;;;;0.60;0.30;;;21.30;99.90;;;;;;20618711;28;20223;-69
2021/09/01 06:15:16;;;;;;;1.77;0.80;;;21.30;99.90;;;;;;20615723;28;20203;-70
2021/09/01 06:25:19;;;;;;;4.30;0.90;;;21.20;99.90;;;;;;20617236;28;20235;-69
2021/09/01 06:35:24;;;;;;;1.00;0.60;;;21.50;99.90;;;;;;20578840;28;20650;-68
2021/09/01 06:45:29;;;;;;;0.60;0.50;;;22.00;99.90;;;;;;20533220;28;20230;-71
2021/09/01 06:55:35;;;;;;;0.70;0.47;;;22.20;99.90;;;;;;20494097;28;20200;-68
2021/09/01 07:05:38;;;;;;;0.93;0.73;;;22.80;99.90;;;;;;20429189;29;20220;-69
2021/09/01 07:15:44;;;;;;;5.38;1.00;;;23.70;99.90;;;;;;20454841;29;20212;-68
2021/09/01 07:25:48;;;;;;;1.15;1.05;;;24.30;99.90;;;;;;20451769;28;20272;-68
2021/09/01 07:35:53;;;;;;;1.48;1.05;;;24.90;99.90;;;;;;20493686;28;20201;-67
2021/09/01 07:45:57;;;;;;;1.08;0.60;;;24.90;99.90;;;;;;20532787;28;20286;-69
2021/09/01 07:56:04;;;;;;;1.38;0.75;;;25.00;99.90;;;;;;20516463;28;20537;-70
2021/09/01 08:06:07;;;;;;;5.60;0.55;;;24.90;99.90;;;;;;20539365;28;20256;-68
2021/09/01 08:16:13;;;;;;;0.82;0.82;;;24.90;99.90;;;;;;20522930;28;20207;-69
2021/09/01 08:26:17;;;;;;;0.88;0.50;;;25.50;99.90;;;;;;20614466;28;20249;-70
2021/09/01 08:36:22;;;;;;;1.02;0.82;;;25.30;99.90;;;;;;20663357;28;20213;-71
2021/09/01 08:46:26;;;;;;;1.08;1.05;;;25.40;99.90;;;;;;20647671;28;20703;-68
2021/09/01 08:56:32;;;;;;;3.90;1.00;;;25.80;99.90;;;;;;20625367;28;20215;-70
2021/09/01 09:06:46;;;;;;;1.10;0.63;;;25.60;99.90;;;;;;20622354;28;21038;-70
2021/09/01 09:17:04;;;;;;;0.68;0.65;;;25.80;99.90;;;;;;20620727;28;20653;-69
2021/09/01 09:27:08;;;;;;;0.68;0.65;;;25.90;99.90;;;;;;20617800;28;20250;-68
2021/09/01 09:37:14;;;;;;;1.02;0.77;;;25.10;99.90;;;;;;20620028;28;20188;-68
2021/09/01 09:47:18;;;;;;;1.17;1.08;;;25.20;99.90;;;;;;20619287;28;20227;-69
2021/09/01 09:57:24;;;;;;;0.50;0.50;;;25.60;99.90;;;;;;20604641;28;20203;-68
2021/09/01 10:07:27;;;;;;;5.10;1.60;;;25.90;99.90;;;;;;20617653;28;21197;-67
2021/09/01 10:17:38;;;;;;;0.30;0.20;;;26.30;99.90;;;;;;20599466;28;20195;-71
2021/09/01 10:27:42;;;;;;;1.05;0.95;;;25.60;99.90;;;;;;20538486;28;21095;-69
2021/09/01 10:37:49;;;;;;;2.17;0.68;;;26.80;99.90;;;;;;20572890;28;20198;-70
2021/09/01 10:48:14;;;;;;;1.38;1.02;;;26.70;99.90;;;;;;20600492;28;20302;-68
2021/09/01 10:58:22;;;;;;;0.47;0.30;;;26.40;99.90;;;;;;20598109;28;20301;-72
2021/09/01 11:08:25;;;;;;;1.90;0.88;;;26.30;99.90;;;;;;20615238;28;20278;-69
2021/09/01 11:18:30;;;;;;;3.23;1.50;;;26.70;99.90;;;;;;20591622;28;20453;-69
2021/09/01 11:28:34;;;;;;;0.68;0.68;;;26.60;99.90;;;;;;20611688;28;20235;-69
2021/09/01 11:38:46;;;;;;;0.95;0.70;;;26.30;99.90;;;;;;20611569;28;20191;-70
2021/09/01 11:48:50;;;;;;;1.08;1.00;;;26.50;99.90;;;;;;20625664;28;20305;-71
2021/09/01 11:59:00;;;;;;;1.13;0.80;;;26.40;99.90;;;;;;20626006;28;20199;-70
2021/09/01 12:09:04;;;;;;;1.15;1.05;;;26.10;99.90;;;;;;20621219;28;20263;-70
2021/09/01 12:19:12;;;;;;;2.33;0.85;;;26.20;99.90;;;;;;20621862;28;20204;-69
2021/09/01 12:29:28;;;;;;;1.05;0.63;;;26.00;99.90;;;;;;20607068;28;20685;-68
2021/09/01 12:39:52;;;;;;;1.65;0.95;;;25.80;99.90;;;;;;20624659;28;20598;-69
2021/09/01 12:49:58;;;;;;;0.85;0.85;;;25.60;99.90;;;;;;20622036;28;20227;-69
2021/09/01 13:00:04;;;;;;;1.85;1.30;;;25.10;99.90;;;;;;20624639;28;20625;-70
2021/09/01 13:10:08;;;;;;;0.80;0.77;;;25.00;99.90;;;;;;20622319;28;20230;-68
2021/09/01 13:20:15;;;;;;;1.77;1.33;;;24.60;99.90;;;;;;20619511;28;20202;-69
2021/09/01 13:30:19;;;;;;;0.70;0.70;;;25.20;99.90;;;;;;20618043;28;20743;-69
2021/09/01 13:40:24;;;;;;;0.85;0.60;;;25.10;99.90;;;;;;20617204;28;20207;-69
2021/09/01 13:50:28;;;;;;;1.27;0.80;;;25.40;99.90;;;;;;20614254;28;21480;-69
2021/09/01 14:00:34;;;;;;;1.45;1.33;;;25.40;99.90;;;;;;20614707;28;20204;-69
2021/09/01 14:10:38;;;;;;;1.95;0.70;;;25.80;99.90;;;;;;20613337;28;20251;-69
2021/09/01 14:20:43;;;;;;;3.60;0.70;;;25.90;99.90;;;;;;20613749;28;20191;-71
2021/09/01 14:30:47;;;;;;;0.77;0.68;;;26.00;99.90;;;;;;20613917;28;20235;-69
2021/09/01 14:40:53;;;;;;;0.98;0.73;;;25.70;99.90;;;;;;20515759;28;20204;-67
2021/09/01 14:50:56;;;;;;;1.08;0.80;;;25.50;99.90;;;;;;20562316;28;20226;-68
2021/09/01 15:01:01;;;;;;;0.55;0.55;;;25.60;99.90;;;;;;20610928;28;21064;-69
2021/09/01 15:11:05;;;;;;;1.13;0.65;;;25.50;99.90;;;;;;20607775;28;20708;-68
2021/09/01 15:21:10;;;;;;;1.42;0.70;;;25.10;99.90;;;;;;20608986;28;20195;-71
2021/09/01 15:31:15;;;;;;;9.30;1.10;;;25.10;99.90;;;;;;20589585;28;20591;-70
2021/09/01 15:41:20;;;;;;;1.83;0.98;;;24.30;99.90;;;;;;20608169;28;20581;-73
2021/09/01 15:51:26;;;;;;;2.35;1.33;;;24.50;99.90;;;;;;20606809;28;20235;-73
2021/09/01 16:01:32;;;;;;;1.35;0.77;;;24.90;99.90;;;;;;20608405;28;20203;-70
2021/09/01 16:11:42;;;;;;;1.00;0.43;;;25.20;99.90;;;;;;20594470;28;20248;-69
2021/09/01 16:21:52;;;;;;;6.10;1.30;;;25.40;99.90;;;;;;20605082;28;20721;-69
2021/09/01 16:31:56;;;;;;;1.13;1.02;;;25.90;99.90;;;;;;20617604;28;20233;-69
2021/09/01 16:42:03;;;;;;;0.90;0.80;;;26.50;99.90;;;;;;20618486;28;20258;-68
2021/09/01 16:52:14;;;;;;;2.45;0.85;;;26.20;99.90;;;;;;20619725;28;20640;-70
2021/09/01 17:02:20;;;;;;;1.67;1.20;;;25.50;99.90;;;;;;20619937;28;20203;-69
2021/09/01 17:12:24;;;;;;;2.03;1.63;;;25.50;99.90;;;;;;20617089;28;20196;-71
2021/09/01 17:22:30;;;;;;;0.82;0.50;;;25.60;99.90;;;;;;20621355;28;20688;-69
2021/09/01 17:32:37;;;;;;;1.90;0.88;;;25.60;99.90;;;;;;20619535;28;20684;-70
2021/09/01 17:42:44;;;;;;;0.82;0.57;;;25.50;99.90;;;;;;20618605;28;20192;-71
2021/09/01 17:52:49;;;;;;;3.25;1.48;;;25.20;99.90;;;;;;20618452;28;20389;-71
2021/09/01 18:02:55;;;;;;;1.17;1.08;;;25.00;99.90;;;;;;20616631;28;20211;-67
2021/09/01 18:12:58;;;;;;;2.00;1.20;;;24.80;99.90;;;;;;20618649;28;21010;-71
2021/09/01 18:23:04;;;;;;;1.63;1.13;;;24.80;99.90;;;;;;20616301;28;20246;-71
2021/09/01 18:33:07;;;;;;;2.38;1.95;;;24.80;99.90;;;;;;20618241;28;20222;-71
2021/09/01 18:43:17;;;;;;;1.35;1.25;;;24.50;99.90;;;;;;20618728;28;20825;-70
2021/09/01 18:53:25;;;;;;;1.88;1.30;;;24.70;99.90;;;;;;20614556;28;20195;-69
2021/09/01 19:03:35;;;;;;;0.75;0.75;;;24.70;99.90;;;;;;20611771;28;20645;-71
2021/09/01 19:13:43;;;;;;;0.50;0.47;;;24.50;99.90;;;;;;20591440;28;20191;-70
2021/09/01 19:23:48;;;;;;;1.35;0.93;;;24.30;99.90;;;;;;20611333;28;20289;-70
2021/09/01 19:33:53;;;;;;;1.48;0.98;;;24.40;99.90;;;;;;20610669;28;20200;-70
2021/09/01 19:43:58;;;;;;;1.33;0.52;;;24.80;99.90;;;;;;20612156;28;20223;-71
2021/09/01 19:54:03;;;;;;;1.33;0.88;;;24.80;99.90;;;;;;20610987;28;20328;-72
2021/09/01 20:04:10;;;;;;;1.30;0.98;;;24.60;99.90;;;;;;20615016;28;20219;-69
2021/09/01 20:14:14;;;;;;;1.20;0.90;;;24.60;99.90;;;;;;20621613;28;20229;-70
2021/09/01 20:24:19;;;;;;;2.15;0.88;;;24.50;99.90;;;;;;20624686;28;20237;-70
2021/09/01 20:34:26;;;;;;;1.23;1.05;;;24.30;99.90;;;;;;20632897;28;20230;-71
2021/09/01 20:44:40;;;;;;;0.95;0.63;;;24.10;99.90;;;;;;20661621;28;20478;-70
2021/09/01 20:54:45;;;;;;;5.28;1.02;;;23.80;99.90;;;;;;20628190;28;20191;-73
2021/09/01 21:04:52;;;;;;;1.10;0.80;;;22.60;99.90;;;;;;20661309;28;20624;-74
2021/09/01 21:14:57;;;;;;;1.07;0.93;;;22.30;99.90;;;;;;20660155;28;20191;-73
2021/09/01 21:25:05;;;;;;;0.50;0.47;;;22.10;99.90;;;;;;20661584;28;20245;-72
2021/09/01 21:35:10;;;;;;;2.87;1.07;;;22.00;99.90;;;;;;20662930;28;21011;-73
2021/09/01 21:45:18;;;;;;;1.83;0.90;;;22.10;99.90;;;;;;20655855;28;20231;-74
2021/09/01 22:05:42;;;;;;;1.40;1.30;;;22.60;99.90;;;;;;21188054;22;20230;-66
2021/09/01 22:15:45;;;;;;;0.70;0.60;;;22.60;99.90;;;;;;20730664;28;20661;-66
2021/09/01 22:25:50;;;;;;;1.20;0.68;;;23.30;99.90;;;;;;20726518;28;20757;-67
2021/09/01 22:35:55;;;;;;;0.60;0.57;;;23.20;99.90;;;;;;20738392;28;20213;-67
2021/09/01 22:46:00;;;;;;;0.60;0.40;;;23.00;99.90;;;;;;20741104;28;20211;-65
2021/09/01 22:56:04;;;;;;;1.05;0.65;;;22.90;99.90;;;;;;20738330;28;20191;-65
2021/09/01 23:06:09;;;;;;;0.98;0.95;;;22.90;99.90;;;;;;20634154;28;20275;-65
2021/09/01 23:16:13;;;;;;;0.50;0.40;;;22.90;99.90;;;;;;20599171;28;20288;-63
2021/09/01 23:26:18;;;;;;;1.37;1.07;;;22.80;99.90;;;;;;20617461;28;20223;-66
2021/09/01 23:36:22;;;;;;;1.08;0.93;;;22.50;99.90;;;;;;20613625;28;20214;-65
2021/09/01 23:46:27;;;;;;;0.82;0.60;;;22.50;99.90;;;;;;20628581;28;20219;-67
2021/09/01 23:56:31;;;;;;;1.43;1.10;;;22.40;99.90;;;;;;20626572;28;21022;-66
